Mahdia, Tunisia
Current Conditions -  °F | °C
As of 4:00 PM on Sunday 21 Dec 2014 (Local Time) from DTMB Reporting Station
Scattered Clouds Scattered Clouds  
Wind Chill: 64°   Ceiling: Unl
Heat Index: 64°   Visibility: 6mi
Dew Point: 46°   Wind: 16mph
Humidity: 52%   Direction: 300°WNW
Pressure: 30.33"   Gusts: NA
Location:  35.5°N, 11.06°E
Report Text: DTMB 211500Z 30014KT 9999 SCT023 SCT030 18/08 Q1027 NOSIG
Loading
Personal Weather Stations






























Interactive Weather Map New forecast layout! Learn more

10-Day Weather Forecast

Advertisements
Track Severe Weather on mobile